Agua Fria, New Mexico
Current Conditions -  °F | °C
As of 11:53 AM on Sunday 23 Nov 2014 (Local Time) from KSAF Reporting Station
Overcast Overcast  
Wind Chill: 34°   Ceiling: 6500
Heat Index: 43°   Visibility: 10mi
Dew Point: 15°   Wind: 20mph
Humidity: 32%   Direction: 300°WNW
Pressure: 29.78"   Gusts: 25mph
Location:  35.7017°N, 105.921°W
Report Text: KSAF 231853Z 30017G22KT 10SM BKN065 OVC080 06/M09 A2978 RMK AO2 PK WND 27027/1754 SLP052 T00611094
Loading
Personal Weather Stations






























Interactive Weather Map New forecast layout! Learn more

10-Day Weather Forecast

Advertisements
Track Severe Weather on mobile